Abernathy, Texas
Current Conditions -  °F | °C
As of 7:53 PM on Friday 28 Nov 2014 (Local Time) from KLBB Reporting Station
Clear Clear  
Wind Chill: 58°   Ceiling: Unl
Heat Index: 58°   Visibility: 10mi
Dew Point: 25°   Wind: 10mph
Humidity: 28%   Direction: 220°SW
Pressure: 29.97"   Gusts: NA
Location:  33.83°N, 101.84°W
Report Text: KLBB 290153Z 22009KT 10SM CLR 14/M04 A2997 RMK AO2 SLP132 T01441039
Loading
Personal Weather Stations






























Interactive Weather Map New forecast layout! Learn more

10-Day Weather Forecast

Advertisements
Track Severe Weather on mobile